createdAt,value
2022-12-26T00:01:29.930Z,84.39
2022-12-26T00:03:02.025Z,84.36
2022-12-26T00:04:51.799Z,84.33
2022-12-26T00:06:27.916Z,84.46
2022-12-26T00:07:59.901Z,84.53
2022-12-26T00:09:36.141Z,84.46
2022-12-26T00:11:08.219Z,84.34
2022-12-26T00:12:40.217Z,83.86
2022-12-26T00:14:17.380Z,83.63
2022-12-26T00:15:49.609Z,83.97
2022-12-26T00:17:21.846Z,84.31
2022-12-26T00:18:54.845Z,84.39
2022-12-26T00:20:26.844Z,84.30
2022-12-26T00:21:58.903Z,84.00
2022-12-26T00:23:32.558Z,83.88
2022-12-26T00:25:04.497Z,83.94
2022-12-26T00:26:37.297Z,84.26
2022-12-26T00:28:09.349Z,84.40
2022-12-26T00:29:41.310Z,84.71
2022-12-26T00:31:19.693Z,85.17
2022-12-26T00:32:51.706Z,85.04
2022-12-26T00:34:23.687Z,85.43
2022-12-26T00:36:04.240Z,85.65
2022-12-26T00:37:36.302Z,85.59
2022-12-26T00:39:08.319Z,85.73
2022-12-26T00:40:45.251Z,85.44
2022-12-26T00:42:17.269Z,85.49
2022-12-26T00:43:49.695Z,85.41
2022-12-26T00:45:21.995Z,85.33
2022-12-26T00:46:54.366Z,85.32
2022-12-26T00:48:26.453Z,85.21
2022-12-26T00:50:14.589Z,84.95
2022-12-26T00:51:47.606Z,85.11
2022-12-26T00:53:20.201Z,85.19
2022-12-26T00:54:52.185Z,85.07
2022-12-26T00:56:24.226Z,85.00
2022-12-26T00:57:56.252Z,85.22
2022-12-26T00:59:28.358Z,85.30
2022-12-26T01:01:15.299Z,85.22
2022-12-26T01:02:47.727Z,85.22
2022-12-26T01:04:19.804Z,85.00
2022-12-26T01:05:52.260Z,84.72
2022-12-26T01:07:24.279Z,84.34
2022-12-26T01:08:56.391Z,84.38
2022-12-26T01:10:28.571Z,84.31
2022-12-26T01:12:00.570Z,84.37
2022-12-26T01:13:32.755Z,84.57
2022-12-26T01:15:06.776Z,84.89
2022-12-26T01:16:39.872Z,85.13
2022-12-26T01:18:11.969Z,85.02
2022-12-26T01:19:44.035Z,85.14
2022-12-26T01:21:15.979Z,85.31
2022-12-26T01:22:47.935Z,85.49
2022-12-26T01:24:19.993Z,85.21
2022-12-26T01:26:18.773Z,85.23
2022-12-26T01:27:43.999Z,84.90
2022-12-26T01:29:15.985Z,84.86
2022-12-26T01:30:48.141Z,84.73
2022-12-26T01:32:20.465Z,84.83
2022-12-26T01:33:52.696Z,84.86
2022-12-26T01:35:24.962Z,84.94
2022-12-26T01:36:57.035Z,84.92
2022-12-26T01:38:29.097Z,85.00
2022-12-26T01:40:01.131Z,84.80
2022-12-26T01:41:33.535Z,84.62
2022-12-26T01:43:12.304Z,84.53
2022-12-26T01:44:56.057Z,84.42
2022-12-26T01:46:48.231Z,84.43
2022-12-26T01:48:26.313Z,84.62
2022-12-26T01:49:58.351Z,84.76
2022-12-26T01:51:32.380Z,84.78
2022-12-26T01:53:17.742Z,85.06
2022-12-26T01:54:52.050Z,85.13
2022-12-26T01:56:38.602Z,85.14
2022-12-26T01:58:13.728Z,85.43
2022-12-26T01:59:46.637Z,85.44
2022-12-26T02:01:19.668Z,85.05
2022-12-26T02:03:10.688Z,84.85
2022-12-26T02:05:06.405Z,84.52
2022-12-26T02:06:38.949Z,84.52
2022-12-26T02:09:48.827Z,84.59
2022-12-26T02:11:27.589Z,84.76
2022-12-26T02:12:59.878Z,85.18
2022-12-26T02:14:32.037Z,85.36
2022-12-26T02:16:05.725Z,85.44
2022-12-26T02:17:39.560Z,85.34
2022-12-26T02:19:28.665Z,85.11
2022-12-26T02:21:14.320Z,85.30
2022-12-26T02:23:04.894Z,85.38
2022-12-26T02:24:59.890Z,85.36
2022-12-26T02:26:46.939Z,85.59
2022-12-26T02:28:33.884Z,85.45
2022-12-26T02:30:28.491Z,85.67
2022-12-26T02:32:18.568Z,85.26
2022-12-26T02:34:08.727Z,85.15
2022-12-26T02:36:16.062Z,84.95
2022-12-26T02:38:03.260Z,84.99
2022-12-26T02:39:53.589Z,84.95
2022-12-26T02:41:42.858Z,85.01
2022-12-26T02:43:51.322Z,84.90
2022-12-26T02:45:50.834Z,84.74
2022-12-26T02:47:32.576Z,84.79
2022-12-26T02:49:18.953Z,84.81
2022-12-26T02:51:45.034Z,84.63
2022-12-26T02:53:38.666Z,84.14
2022-12-26T02:55:38.410Z,84.38
2022-12-26T02:57:32.544Z,84.39
2022-12-26T02:59:56.150Z,84.76
2022-12-26T03:01:51.850Z,84.99
2022-12-26T03:03:46.548Z,85.24
2022-12-26T03:05:44.106Z,85.29
2022-12-26T03:09:24.815Z,85.42
2022-12-26T03:11:15.957Z,85.26
2022-12-26T03:13:11.183Z,85.25
2022-12-26T03:14:47.737Z,85.13
2022-12-26T03:16:39.831Z,85.22
2022-12-26T03:18:12.263Z,84.70
2022-12-26T03:20:02.461Z,84.72
2022-12-26T03:21:40.543Z,84.75
2022-12-26T03:23:15.418Z,84.55
2022-12-26T03:25:06.070Z,84.68
2022-12-26T03:26:44.042Z,84.87
2022-12-26T03:28:16.258Z,85.24
2022-12-26T03:30:08.625Z,85.39
2022-12-26T03:31:40.544Z,85.20
2022-12-26T03:33:31.307Z,85.07
2022-12-26T03:35:13.030Z,85.13
2022-12-26T03:37:22.429Z,85.15
2022-12-26T03:39:12.343Z,85.39
2022-12-26T03:41:13.619Z,85.19
2022-12-26T03:43:42.532Z,85.25
2022-12-26T03:45:59.045Z,85.36
2022-12-26T03:48:11.312Z,85.48
2022-12-26T03:50:06.698Z,85.61
2022-12-26T03:52:20.487Z,85.12
2022-12-26T03:54:35.446Z,84.99
2022-12-26T03:56:41.396Z,84.68
2022-12-26T03:58:36.270Z,84.74
2022-12-26T04:00:29.115Z,84.76
2022-12-26T04:02:24.941Z,84.97
2022-12-26T04:04:17.183Z,84.92
2022-12-26T04:06:08.806Z,85.09
2022-12-26T04:08:03.080Z,84.89
2022-12-26T04:09:58.647Z,84.76
2022-12-26T04:11:49.283Z,84.49
2022-12-26T04:13:48.787Z,84.63
2022-12-26T04:15:48.056Z,84.41
2022-12-26T04:18:06.950Z,84.29
2022-12-26T04:19:44.864Z,84.42
2022-12-26T04:21:48.605Z,84.18
2022-12-26T04:23:50.510Z,84.46
2022-12-26T04:25:51.457Z,84.56
2022-12-26T04:27:46.867Z,84.75
2022-12-26T04:29:37.476Z,84.69
2022-12-26T04:31:33.220Z,84.89
2022-12-26T04:33:33.109Z,84.64
2022-12-26T04:35:29.377Z,84.80
2022-12-26T04:37:23.178Z,85.03
2022-12-26T04:39:18.339Z,84.89
2022-12-26T04:41:13.545Z,84.81
2022-12-26T04:43:47.063Z,84.87
2022-12-26T04:44:58.247Z,84.61
2022-12-26T04:46:31.903Z,84.36
2022-12-26T04:48:22.265Z,84.18
2022-12-26T04:50:14.535Z,84.16
2022-12-26T04:51:46.568Z,84.51
2022-12-26T04:53:19.400Z,84.50
2022-12-26T04:54:51.861Z,84.70
2022-12-26T04:56:24.020Z,84.81
2022-12-26T04:57:56.208Z,84.90
2022-12-26T04:59:28.458Z,84.87
2022-12-26T05:01:20.498Z,85.04
2022-12-26T05:03:16.386Z,85.17
2022-12-26T05:05:26.358Z,84.60
2022-12-26T05:07:17.544Z,84.49
2022-12-26T05:09:08.539Z,84.76
2022-12-26T05:10:40.622Z,84.70
2022-12-26T05:12:12.597Z,84.55
2022-12-26T05:13:44.637Z,84.37
2022-12-26T05:15:16.670Z,84.33
2022-12-26T05:17:07.241Z,84.39
2022-12-26T05:18:57.817Z,84.16
2022-12-26T05:20:38.879Z,83.89
2022-12-26T05:22:34.041Z,84.06
2022-12-26T05:24:24.823Z,84.36
2022-12-26T05:26:15.505Z,84.37
2022-12-26T05:28:06.087Z,84.43
2022-12-26T05:29:38.425Z,84.51
2022-12-26T05:31:16.198Z,84.51
2022-12-26T05:33:06.735Z,84.49
2022-12-26T05:34:38.837Z,84.64
2022-12-26T05:36:11.338Z,84.41
2022-12-26T05:37:43.355Z,84.32
2022-12-26T05:39:15.582Z,84.26
2022-12-26T05:40:47.614Z,84.44
2022-12-26T05:42:19.790Z,84.55
2022-12-26T05:43:51.995Z,84.64
2022-12-26T05:45:24.513Z,84.32
2022-12-26T05:46:57.557Z,84.22
2022-12-26T05:48:29.696Z,84.42
2022-12-26T05:50:02.183Z,84.53
2022-12-26T05:51:34.899Z,84.56
2022-12-26T05:53:07.087Z,84.77
2022-12-26T05:54:39.063Z,84.23
2022-12-26T05:56:14.470Z,84.32
2022-12-26T05:57:46.546Z,84.33
2022-12-26T05:59:18.608Z,84.64
2022-12-26T06:00:50.596Z,84.70
2022-12-26T06:02:22.762Z,84.52
2022-12-26T06:03:57.443Z,84.54
2022-12-26T06:05:29.724Z,84.44
2022-12-26T06:07:01.688Z,84.33
2022-12-26T06:08:34.141Z,84.22
2022-12-26T06:10:06.878Z,84.43
2022-12-26T06:11:43.780Z,84.45
2022-12-26T06:13:20.572Z,84.35
2022-12-26T06:14:52.771Z,84.46
2022-12-26T06:16:25.041Z,84.41
2022-12-26T06:17:57.421Z,84.41
2022-12-26T06:19:29.478Z,84.62
2022-12-26T06:21:09.316Z,84.51
2022-12-26T06:22:41.311Z,84.57
2022-12-26T06:24:14.420Z,84.69
2022-12-26T06:25:54.018Z,84.89
2022-12-26T06:27:26.040Z,85.05
2022-12-26T06:29:00.827Z,85.25
2022-12-26T06:30:32.986Z,84.93
2022-12-26T06:32:05.694Z,85.08
2022-12-26T06:33:38.017Z,85.19
2022-12-26T06:35:10.184Z,85.32
2022-12-26T06:36:42.320Z,85.25
2022-12-26T06:38:14.578Z,85.63
2022-12-26T06:39:47.118Z,85.72
2022-12-26T06:41:20.284Z,85.85
2022-12-26T06:42:52.428Z,85.79
2022-12-26T06:44:24.488Z,86.10
2022-12-26T06:45:57.925Z,86.27
2022-12-26T06:47:30.076Z,86.32
2022-12-26T06:49:02.208Z,86.11
2022-12-26T06:50:36.656Z,86.13
2022-12-26T06:52:08.857Z,86.42
2022-12-26T06:53:41.317Z,86.21
2022-12-26T06:55:13.337Z,86.40
2022-12-26T06:56:45.547Z,86.60
2022-12-26T06:58:17.947Z,86.73
2022-12-26T06:59:49.984Z,86.65
2022-12-26T07:01:23.149Z,86.84
2022-12-26T07:02:55.430Z,86.79
2022-12-26T07:04:27.551Z,86.81
2022-12-26T07:06:07.243Z,86.95
2022-12-26T07:07:39.382Z,87.11
2022-12-26T07:09:15.047Z,87.45
2022-12-26T07:10:47.177Z,87.63
2022-12-26T07:12:22.073Z,87.60
2022-12-26T07:13:54.740Z,87.63
2022-12-26T07:15:26.779Z,87.81
2022-12-26T07:16:58.785Z,88.04
2022-12-26T07:18:30.950Z,88.12
2022-12-26T07:20:04.517Z,88.15
2022-12-26T07:21:40.477Z,88.01
2022-12-26T07:23:13.232Z,88.13
2022-12-26T07:24:45.206Z,88.12
2022-12-26T07:26:17.424Z,88.09
2022-12-26T07:27:53.567Z,88.15
2022-12-26T07:29:25.645Z,88.28
2022-12-26T07:30:59.431Z,88.51
2022-12-26T07:32:31.544Z,88.35
2022-12-26T07:34:03.673Z,88.64
2022-12-26T07:35:35.754Z,88.82
2022-12-26T07:37:07.953Z,88.64
2022-12-26T07:38:39.989Z,89.19
2022-12-26T07:40:12.665Z,89.29
2022-12-26T07:42:00.174Z,89.27
2022-12-26T07:43:32.242Z,89.35
2022-12-26T07:45:07.089Z,89.52
2022-12-26T07:46:40.370Z,89.30
2022-12-26T07:48:12.359Z,89.31
2022-12-26T07:49:44.440Z,89.32
2022-12-26T07:51:16.474Z,89.40
2022-12-26T07:52:49.847Z,89.13
2022-12-26T07:54:21.944Z,89.09
2022-12-26T07:55:53.975Z,89.24
2022-12-26T07:59:18.376Z,88.69
2022-12-26T08:02:23.575Z,88.37
2022-12-26T08:03:55.917Z,88.44
2022-12-26T08:05:28.361Z,88.25
2022-12-26T08:07:00.442Z,87.89
2022-12-26T08:08:32.831Z,88.18
2022-12-26T08:10:05.211Z,88.12
2022-12-26T08:11:37.293Z,88.20
2022-12-26T08:13:09.725Z,88.02
2022-12-26T08:14:42.169Z,87.87
2022-12-26T08:16:15.083Z,87.86
2022-12-26T08:17:47.263Z,87.72
2022-12-26T08:19:19.337Z,87.64
2022-12-26T08:20:54.588Z,87.44
2022-12-26T08:22:27.734Z,87.25
2022-12-26T08:23:59.773Z,87.23
2022-12-26T08:25:31.827Z,87.51
2022-12-26T08:27:04.932Z,87.80
2022-12-26T08:28:37.332Z,87.31
2022-12-26T08:30:10.115Z,87.26
2022-12-26T08:31:42.427Z,87.33
2022-12-26T08:33:14.497Z,87.23
2022-12-26T08:34:46.750Z,87.47
2022-12-26T08:36:19.456Z,87.17
2022-12-26T08:37:51.576Z,86.88
2022-12-26T08:39:23.633Z,86.92
2022-12-26T08:40:59.485Z,86.59
2022-12-26T08:42:31.451Z,86.53
2022-12-26T08:47:27.854Z,86.32
2022-12-26T08:49:00.031Z,86.24
2022-12-26T08:50:36.574Z,85.86
2022-12-26T08:52:12.964Z,85.54
2022-12-26T08:53:46.332Z,85.68
2022-12-26T08:55:18.451Z,85.62
2022-12-26T08:56:50.463Z,85.22
2022-12-26T08:58:22.935Z,85.13
2022-12-26T08:59:55.127Z,84.93
2022-12-26T09:01:29.832Z,84.60
2022-12-26T09:03:02.072Z,84.47
2022-12-26T09:04:34.351Z,84.19
2022-12-26T09:06:06.958Z,84.25
2022-12-26T09:07:39.079Z,84.37
2022-12-26T09:09:13.055Z,84.17
2022-12-26T09:10:45.004Z,83.53
2022-12-26T09:12:17.003Z,83.20
2022-12-26T09:13:49.555Z,82.22
2022-12-26T09:15:21.672Z,81.52
2022-12-26T09:16:54.790Z,81.40
2022-12-26T09:18:27.209Z,81.68
2022-12-26T09:19:59.201Z,81.45
2022-12-26T09:21:31.515Z,81.80
2022-12-26T09:23:03.595Z,81.75
2022-12-26T09:24:35.690Z,81.36
2022-12-26T09:26:09.685Z,81.35
2022-12-26T09:27:41.815Z,80.97
2022-12-26T09:29:15.078Z,80.55
2022-12-26T09:30:47.185Z,80.16
2022-12-26T09:32:19.377Z,80.14
2022-12-26T09:33:52.820Z,79.97
2022-12-26T09:35:24.897Z,79.63
2022-12-26T09:36:57.085Z,79.66
2022-12-26T09:38:29.531Z,78.68
2022-12-26T09:40:01.654Z,77.35
2022-12-26T09:41:36.603Z,77.29
2022-12-26T09:43:38.774Z,76.95
2022-12-26T09:45:16.813Z,77.19
2022-12-26T09:47:07.721Z,76.13
2022-12-26T09:49:02.766Z,74.64
2022-12-26T09:50:42.878Z,74.43
2022-12-26T09:52:23.611Z,74.09
2022-12-26T09:53:55.799Z,73.74
2022-12-26T09:55:37.956Z,74.64
2022-12-26T09:57:17.046Z,74.61
2022-12-26T09:59:17.223Z,72.41
2022-12-26T10:00:54.126Z,72.31
2022-12-26T10:02:26.906Z,73.11
2022-12-26T10:04:01.244Z,72.51
2022-12-26T10:06:08.999Z,71.06
2022-12-26T10:07:52.501Z,70.87
2022-12-26T10:10:05.261Z,71.28
2022-12-26T10:12:04.592Z,71.59
2022-12-26T10:13:47.466Z,70.99
2022-12-26T10:15:42.830Z,69.70
2022-12-26T10:17:24.653Z,69.82
2022-12-26T10:19:14.199Z,69.44
2022-12-26T10:20:55.744Z,69.20
2022-12-26T10:22:49.089Z,68.33
2022-12-26T10:24:23.262Z,67.45
2022-12-26T10:26:01.517Z,67.73
2022-12-26T10:27:40.166Z,67.45
2022-12-26T10:29:14.282Z,67.87
2022-12-26T10:30:47.525Z,67.52
2022-12-26T10:32:27.641Z,67.13
2022-12-26T10:34:18.011Z,66.81
2022-12-26T10:35:50.105Z,67.76
2022-12-26T10:37:41.138Z,67.19
2022-12-26T10:39:27.413Z,67.20
2022-12-26T10:41:06.401Z,67.17
2022-12-26T10:42:43.741Z,67.46
2022-12-26T10:44:16.321Z,67.98
2022-12-26T10:46:03.491Z,67.96
2022-12-26T10:47:40.190Z,67.82
2022-12-26T10:49:13.051Z,67.37
2022-12-26T10:50:48.651Z,67.04
2022-12-26T10:52:24.968Z,67.42
2022-12-26T10:53:57.124Z,67.89
2022-12-26T10:55:34.897Z,66.99
2022-12-26T10:57:08.753Z,66.79
2022-12-26T10:58:40.663Z,66.84
2022-12-26T11:00:25.996Z,66.97
2022-12-26T11:02:14.426Z,66.38
2022-12-26T11:04:01.746Z,66.64
2022-12-26T11:06:06.249Z,66.27
2022-12-26T11:07:32.096Z,65.16
2022-12-26T11:09:05.451Z,64.90
2022-12-26T11:10:37.740Z,64.99
2022-12-26T11:13:00.814Z,64.84
2022-12-26T11:14:37.080Z,65.14
2022-12-26T11:16:10.643Z,65.09
2022-12-26T11:17:44.831Z,65.64
2022-12-26T11:19:28.134Z,65.99
2022-12-26T11:21:14.904Z,66.21
2022-12-26T11:22:47.068Z,66.09
2022-12-26T11:24:20.265Z,64.99
2022-12-26T11:25:57.323Z,64.16
2022-12-26T11:27:29.466Z,63.74
2022-12-26T11:29:21.004Z,65.41
2022-12-26T11:30:53.473Z,65.26
2022-12-26T11:32:25.702Z,65.98
2022-12-26T11:33:59.937Z,65.31
2022-12-26T11:35:37.577Z,66.23
2022-12-26T11:37:24.166Z,65.66
2022-12-26T11:39:05.853Z,64.87
2022-12-26T11:40:39.684Z,64.77
2022-12-26T11:42:13.293Z,64.51
2022-12-26T11:43:45.412Z,64.85
2022-12-26T11:45:23.513Z,64.99
2022-12-26T11:46:57.298Z,64.43
2022-12-26T11:48:29.370Z,63.48
2022-12-26T11:50:05.715Z,64.02
2022-12-26T11:51:43.294Z,65.08
2022-12-26T11:53:21.212Z,65.05
2022-12-26T11:54:53.414Z,64.20
2022-12-26T11:56:26.599Z,64.68
2022-12-26T11:58:10.600Z,64.26
2022-12-26T11:59:42.578Z,65.01
2022-12-26T12:01:17.021Z,65.58
2022-12-26T12:02:49.665Z,64.04
2022-12-26T12:04:21.993Z,63.71
2022-12-26T12:06:31.055Z,63.88
2022-12-26T12:08:13.554Z,63.48
2022-12-26T12:10:07.789Z,63.87
2022-12-26T12:11:49.177Z,64.14
2022-12-26T12:13:43.804Z,64.83
2022-12-26T12:15:30.791Z,63.81
2022-12-26T12:17:26.720Z,64.31
2022-12-26T12:19:20.828Z,64.65
2022-12-26T12:21:07.217Z,65.26
2022-12-26T12:22:48.257Z,65.83
2022-12-26T12:25:01.613Z,65.98
2022-12-26T12:26:38.403Z,65.63
2022-12-26T12:28:24.675Z,65.53
2022-12-26T12:30:35.628Z,65.16
2022-12-26T12:32:18.364Z,66.27
2022-12-26T12:33:59.299Z,66.16
2022-12-26T12:35:50.276Z,66.50
2022-12-26T12:37:47.663Z,67.08
2022-12-26T12:39:50.568Z,67.43
2022-12-26T12:41:40.911Z,66.84
2022-12-26T12:43:38.102Z,65.95
2022-12-26T12:45:39.040Z,65.15
2022-12-26T12:47:33.589Z,65.30
2022-12-26T12:49:17.265Z,65.92
2022-12-26T12:51:07.825Z,65.98
2022-12-26T12:52:56.101Z,66.46
2022-12-26T12:55:03.077Z,66.64
2022-12-26T12:57:16.847Z,66.43
2022-12-26T12:59:13.521Z,67.37
2022-12-26T13:00:51.526Z,67.55
2022-12-26T14:00:16.577Z,66.56
2022-12-26T14:02:00.203Z,67.09
2022-12-26T14:03:52.879Z,67.25
2022-12-26T14:05:28.529Z,67.14
2022-12-26T14:07:09.651Z,66.78
2022-12-26T14:09:20.954Z,66.64
2022-12-26T14:11:36.062Z,66.61
2022-12-26T14:13:46.192Z,66.84
2022-12-26T14:15:41.246Z,66.96
2022-12-26T14:17:34.526Z,67.13
2022-12-26T14:19:36.193Z,67.36
2022-12-26T14:21:27.055Z,67.22
2022-12-26T14:23:17.835Z,67.29
2022-12-26T14:24:55.705Z,67.53
2022-12-26T14:26:45.811Z,67.36
2022-12-26T14:29:59.494Z,67.44
2022-12-26T14:31:49.713Z,67.58
2022-12-26T14:33:40.117Z,67.47
2022-12-26T14:35:38.450Z,67.70
2022-12-26T14:37:10.560Z,67.92
2022-12-26T14:39:17.918Z,67.89
2022-12-26T14:41:09.675Z,68.08
2022-12-26T14:43:12.095Z,68.11
2022-12-26T14:44:44.656Z,68.38
2022-12-26T14:46:31.989Z,68.55
2022-12-26T14:48:28.267Z,68.81
2022-12-26T14:50:32.154Z,68.99
2022-12-26T14:52:26.107Z,69.07
2022-12-26T14:54:27.751Z,69.46
2022-12-26T14:55:59.903Z,69.87
2022-12-26T14:59:34.509Z,69.87
2022-12-26T15:01:09.526Z,70.21
2022-12-26T15:02:45.623Z,70.38
2022-12-26T15:05:05.293Z,70.58
2022-12-26T15:06:55.779Z,71.10
2022-12-26T15:08:55.097Z,71.48
2022-12-26T15:10:48.028Z,71.85
2022-12-26T15:12:58.353Z,71.96
2022-12-26T15:14:39.876Z,72.43
2022-12-26T15:16:56.416Z,72.54
2022-12-26T15:19:03.960Z,73.00
2022-12-26T15:21:05.793Z,73.05
2022-12-26T15:23:00.831Z,73.33
2022-12-26T15:27:30.452Z,73.85
2022-12-26T15:29:34.914Z,73.77
2022-12-26T15:31:37.078Z,73.86
2022-12-26T15:33:21.392Z,73.94
2022-12-26T15:35:17.890Z,74.07
2022-12-26T15:37:01.712Z,74.40
2022-12-26T15:39:15.145Z,74.50
2022-12-26T15:40:56.423Z,74.24
2022-12-26T15:42:46.592Z,74.39
2022-12-26T15:44:29.122Z,74.48
2022-12-26T15:46:30.074Z,74.24
2022-12-26T15:48:32.670Z,74.31
2022-12-26T15:50:15.718Z,74.65
2022-12-26T15:52:07.363Z,74.48
2022-12-26T15:53:51.496Z,74.75
2022-12-26T15:55:29.259Z,74.92
2022-12-26T15:57:14.030Z,74.92
2022-12-26T15:59:09.481Z,75.21
2022-12-26T16:01:00.240Z,75.18
2022-12-26T16:02:37.095Z,75.47
2022-12-26T16:04:29.711Z,75.74
2022-12-26T16:06:19.129Z,76.34
2022-12-26T16:07:56.275Z,76.30
2022-12-26T16:09:47.100Z,76.22
2022-12-26T16:11:22.656Z,76.51
2022-12-26T16:13:00.110Z,76.22
2022-12-26T16:14:39.596Z,76.08
2022-12-26T16:16:11.799Z,76.30
2022-12-26T16:17:44.239Z,76.23
2022-12-26T16:19:24.275Z,76.21
2022-12-26T16:21:17.429Z,76.59
2022-12-26T16:22:49.832Z,76.88
2022-12-26T16:24:22.353Z,76.59
2022-12-26T16:25:57.025Z,76.79
2022-12-26T16:27:30.405Z,77.08
2022-12-26T16:29:02.560Z,77.12
2022-12-26T16:30:37.792Z,77.22
2022-12-26T16:32:14.789Z,77.34
2022-12-26T16:33:47.765Z,77.63
2022-12-26T16:35:39.700Z,77.57
2022-12-26T16:37:18.125Z,77.84
2022-12-26T16:38:51.251Z,77.94
2022-12-26T16:40:46.609Z,77.94
2022-12-26T16:42:39.253Z,78.02
2022-12-26T16:44:30.654Z,78.18
2022-12-26T16:46:06.552Z,78.36
2022-12-26T16:47:38.907Z,78.29
2022-12-26T16:49:11.566Z,78.50
2022-12-26T16:50:51.396Z,78.45
2022-12-26T16:52:40.568Z,78.67
2022-12-26T16:54:20.847Z,78.83
2022-12-26T16:55:57.937Z,78.64
2022-12-26T16:57:29.947Z,78.80
2022-12-26T16:59:07.084Z,78.73
2022-12-26T17:00:39.371Z,78.89
2022-12-26T17:02:24.568Z,78.41
2022-12-26T17:04:00.106Z,78.32
2022-12-26T17:05:34.427Z,79.03
2022-12-26T17:07:08.071Z,78.65
2022-12-26T17:08:43.933Z,78.54
2022-12-26T17:10:25.255Z,78.46
2022-12-26T17:12:03.297Z,78.77
2022-12-26T17:13:35.457Z,79.07
2022-12-26T17:15:08.329Z,79.79
2022-12-26T17:16:40.414Z,79.57
2022-12-26T17:18:37.003Z,79.75
2022-12-26T17:20:24.281Z,79.91
2022-12-26T17:22:18.182Z,79.83
2022-12-26T17:24:10.204Z,79.90
2022-12-26T17:25:47.151Z,80.05
2022-12-26T17:27:26.826Z,80.25
2022-12-26T17:29:00.449Z,79.96
2022-12-26T17:30:32.476Z,79.73
2022-12-26T17:32:12.649Z,79.64
2022-12-26T17:33:48.089Z,79.95
2022-12-26T17:35:26.070Z,80.23
2022-12-26T17:37:19.980Z,80.42
2022-12-26T17:38:52.566Z,80.43
2022-12-26T17:40:31.305Z,80.36
2022-12-26T17:42:03.386Z,80.38
2022-12-26T17:43:38.262Z,80.58
2022-12-26T17:45:18.807Z,80.33
2022-12-26T17:46:50.791Z,80.42
2022-12-26T17:48:22.826Z,80.50
2022-12-26T17:49:56.199Z,80.68
2022-12-26T17:51:30.766Z,80.72
2022-12-26T17:53:08.411Z,80.96
2022-12-26T17:54:40.560Z,81.23
2022-12-26T17:57:44.418Z,81.37
2022-12-26T17:59:16.461Z,81.39
2022-12-26T18:00:49.110Z,81.57
2022-12-26T18:02:22.093Z,81.55
2022-12-26T18:03:54.466Z,81.64
2022-12-26T18:05:27.949Z,81.38
2022-12-26T18:07:00.027Z,81.01
2022-12-26T18:08:37.921Z,80.94
2022-12-26T18:10:25.120Z,81.04
2022-12-26T18:11:57.841Z,81.47
2022-12-26T18:13:30.189Z,81.89
2022-12-26T18:15:02.884Z,81.64
2022-12-26T18:16:35.135Z,81.68
2022-12-26T18:18:29.299Z,81.77
2022-12-26T18:20:03.159Z,81.75
2022-12-26T18:21:35.199Z,82.03
2022-12-26T18:23:10.964Z,82.17
2022-12-26T18:24:43.179Z,81.95
2022-12-26T18:26:21.482Z,82.19
2022-12-26T18:27:53.862Z,82.13
2022-12-26T18:29:25.998Z,82.14
2022-12-26T18:30:58.617Z,82.24
2022-12-26T18:32:33.226Z,81.94
2022-12-26T18:34:05.981Z,81.99
2022-12-26T18:35:42.251Z,82.14
2022-12-26T18:37:14.456Z,82.13
2022-12-26T18:38:46.687Z,81.83
2022-12-26T18:40:47.180Z,81.19
2022-12-26T18:42:19.951Z,81.52
2022-12-26T18:43:52.325Z,81.63
2022-12-26T18:45:24.671Z,81.95
2022-12-26T18:46:56.773Z,81.89
2022-12-26T18:48:28.854Z,81.83
2022-12-26T18:50:00.862Z,82.15
2022-12-26T18:51:32.918Z,81.99
2022-12-26T18:53:05.132Z,81.99
2022-12-26T18:54:37.164Z,82.42
2022-12-26T18:56:15.279Z,82.24
2022-12-26T18:57:47.417Z,82.54
2022-12-26T18:59:19.458Z,82.66
2022-12-26T19:02:30.844Z,82.61
2022-12-26T19:04:02.990Z,82.70
2022-12-26T19:05:35.435Z,82.84
2022-12-26T19:07:07.424Z,83.01
2022-12-26T19:08:39.463Z,82.47
2022-12-26T19:10:11.847Z,82.38
2022-12-26T19:11:43.947Z,82.59
2022-12-26T19:13:16.079Z,82.70
2022-12-26T19:14:48.300Z,82.33
2022-12-26T19:16:20.504Z,82.38
2022-12-26T19:17:52.511Z,82.56
2022-12-26T19:19:26.982Z,82.41
2022-12-26T19:20:59.138Z,82.65
2022-12-26T19:22:31.191Z,82.55
2022-12-26T19:24:03.392Z,82.64
2022-12-26T19:25:35.568Z,82.85
2022-12-26T19:27:07.656Z,82.94
2022-12-26T19:28:39.800Z,83.04
2022-12-26T19:30:12.653Z,83.16
2022-12-26T19:31:44.762Z,82.50
2022-12-26T19:33:16.821Z,82.63
2022-12-26T19:34:49.310Z,82.83
2022-12-26T19:36:21.372Z,82.73
2022-12-26T19:37:53.424Z,82.78
2022-12-26T19:39:25.687Z,82.92
2022-12-26T19:41:05.225Z,82.71
2022-12-26T19:42:38.701Z,83.10
2022-12-26T19:44:11.287Z,83.10
2022-12-26T19:45:43.357Z,83.12
2022-12-26T19:47:15.492Z,82.95
2022-12-26T19:48:47.526Z,83.07
2022-12-26T19:50:19.693Z,83.17
2022-12-26T19:51:51.827Z,83.20
2022-12-26T19:53:23.861Z,83.69
2022-12-26T19:54:56.006Z,83.81
2022-12-26T19:56:29.077Z,84.39
2022-12-26T19:58:01.130Z,84.45
2022-12-26T20:01:14.438Z,84.58
2022-12-26T20:02:46.740Z,84.38
2022-12-26T20:04:18.940Z,83.95
2022-12-26T20:05:50.965Z,84.09
2022-12-26T20:07:23.027Z,84.17
2022-12-26T20:08:58.686Z,83.83
2022-12-26T20:10:30.921Z,83.72
2022-12-26T20:12:03.296Z,83.88
2022-12-26T20:13:36.178Z,83.83
2022-12-26T20:15:08.426Z,84.14
2022-12-26T20:18:35.596Z,84.21
2022-12-26T20:20:07.948Z,84.44
2022-12-26T20:21:39.989Z,84.62
2022-12-26T20:23:11.946Z,84.65
2022-12-26T20:24:44.171Z,84.67
2022-12-26T20:26:21.252Z,84.66
2022-12-26T20:27:53.278Z,84.50
2022-12-26T20:29:25.561Z,84.49
2022-12-26T20:31:17.883Z,84.28
2022-12-26T20:32:49.957Z,84.24
2022-12-26T20:34:22.366Z,84.16
2022-12-26T20:36:05.738Z,83.90
2022-12-26T20:37:37.860Z,84.04
2022-12-26T20:39:14.467Z,83.81
2022-12-26T20:40:50.078Z,83.68
2022-12-26T20:42:22.487Z,83.82
2022-12-26T20:43:55.062Z,83.94
2022-12-26T20:45:27.093Z,83.99
2022-12-26T20:46:59.230Z,84.12
2022-12-26T20:48:31.603Z,84.08
2022-12-26T20:50:05.627Z,84.11
2022-12-26T20:51:39.869Z,84.24
2022-12-26T20:53:11.915Z,84.22
2022-12-26T20:54:43.987Z,84.48
2022-12-26T20:56:16.177Z,84.53
2022-12-26T20:59:23.178Z,84.11
2022-12-26T21:01:07.644Z,83.81
2022-12-26T21:02:39.993Z,83.96
2022-12-26T21:04:23.174Z,83.83
2022-12-26T21:05:55.588Z,83.60
2022-12-26T21:07:27.682Z,83.56
2022-12-26T21:09:00.039Z,83.38
2022-12-26T21:10:32.258Z,83.81
2022-12-26T21:12:04.743Z,83.80
2022-12-26T21:13:37.944Z,84.25
2022-12-26T21:15:10.238Z,84.21
2022-12-26T21:16:53.999Z,84.38
2022-12-26T21:18:26.090Z,84.68
2022-12-26T21:20:01.172Z,84.75
2022-12-26T21:21:35.397Z,84.57
2022-12-26T21:23:07.410Z,84.63
2022-12-26T21:24:39.538Z,84.55
2022-12-26T21:26:12.147Z,84.76
2022-12-26T21:27:45.583Z,84.78
2022-12-26T21:29:30.296Z,84.85
2022-12-26T21:31:02.881Z,85.01
2022-12-26T21:32:35.010Z,84.85
2022-12-26T21:34:07.195Z,84.85
2022-12-26T21:35:39.132Z,84.90
2022-12-26T21:37:30.092Z,85.06
2022-12-26T21:39:07.874Z,85.08
2022-12-26T21:40:43.416Z,85.00
2022-12-26T21:42:15.768Z,85.20
2022-12-26T21:43:48.310Z,85.13
2022-12-26T21:45:20.379Z,85.06
2022-12-26T21:46:52.576Z,85.02
2022-12-26T21:48:25.474Z,84.94
2022-12-26T21:49:57.441Z,85.23
2022-12-26T21:51:30.029Z,85.34
2022-12-26T21:53:02.331Z,85.30
2022-12-26T21:54:53.458Z,85.20
2022-12-26T21:56:25.433Z,85.27
2022-12-26T21:57:59.499Z,85.11
2022-12-26T21:59:50.250Z,85.32
2022-12-26T22:01:23.582Z,85.36
2022-12-26T22:03:14.236Z,84.91
2022-12-26T22:04:46.434Z,84.97
2022-12-26T22:06:18.523Z,84.66
2022-12-26T22:07:54.452Z,84.77
2022-12-26T22:09:26.493Z,84.82
2022-12-26T22:11:16.981Z,85.21
2022-12-26T22:12:57.832Z,85.11
2022-12-26T22:14:30.204Z,85.16
2022-12-26T22:16:09.508Z,85.43
2022-12-26T22:17:41.571Z,85.36
2022-12-26T22:19:13.638Z,85.20
2022-12-26T22:20:46.333Z,85.27
2022-12-26T22:22:18.604Z,85.14
2022-12-26T22:23:51.682Z,85.03
2022-12-26T22:25:23.994Z,84.96
2022-12-26T22:26:59.506Z,85.30
2022-12-26T22:28:31.875Z,85.31
2022-12-26T22:30:05.366Z,85.40
2022-12-26T22:31:38.435Z,85.32
2022-12-26T22:33:10.467Z,84.99
2022-12-26T22:34:42.688Z,84.97
2022-12-26T22:36:14.819Z,85.14
2022-12-26T22:37:47.021Z,84.95
2022-12-26T22:39:19.133Z,85.00
2022-12-26T22:40:56.042Z,85.21
2022-12-26T22:42:30.261Z,85.32
2022-12-26T22:44:02.601Z,85.17
2022-12-26T22:45:34.835Z,85.28
2022-12-26T22:47:06.826Z,85.42